createdAt,value
2023-04-27T00:00:41.824Z,102141.34
2023-04-27T00:05:32.359Z,102150.75
2023-04-27T00:10:22.447Z,102144.00
2023-04-27T00:15:13.916Z,102143.19
2023-04-27T00:20:07.884Z,102138.53
2023-04-27T00:24:59.908Z,102148.91
2023-04-27T00:29:49.814Z,102141.72
2023-04-27T00:34:40.403Z,102152.94
2023-04-27T00:39:33.069Z,102148.44
2023-04-27T00:44:27.493Z,102143.88
2023-04-27T00:49:19.443Z,102138.03
2023-04-27T00:54:10.405Z,102132.91
2023-04-27T00:59:02.978Z,102096.03
2023-04-27T01:03:53.017Z,102131.59
2023-04-27T01:08:43.281Z,102077.94
2023-04-27T01:13:33.228Z,102124.25
2023-04-27T01:18:26.967Z,102115.47
2023-04-27T01:23:19.857Z,102115.47
2023-04-27T01:28:09.706Z,102115.22
2023-04-27T01:33:00.949Z,102100.88
2023-04-27T01:37:50.920Z,102094.75
2023-04-27T01:42:43.530Z,102116.22
2023-04-27T01:47:33.515Z,102068.50
2023-04-27T01:52:23.412Z,102124.50
2023-04-27T01:57:14.533Z,102121.88
2023-04-27T02:02:07.351Z,102113.84
2023-04-27T02:06:59.951Z,102107.00
2023-04-27T02:11:50.838Z,102110.31
2023-04-27T02:16:40.806Z,102108.31
2023-04-27T02:21:36.615Z,102098.69
2023-04-27T02:26:29.643Z,102049.31
2023-04-27T02:31:20.666Z,102092.38
2023-04-27T02:36:11.865Z,102085.84
2023-04-27T02:41:04.451Z,102096.22
2023-04-27T02:45:57.330Z,102080.16
2023-04-27T02:50:48.056Z,102088.84
2023-04-27T02:55:41.225Z,102099.25
2023-04-27T03:00:34.305Z,102098.03
2023-04-27T03:05:29.197Z,102087.41
2023-04-27T03:10:19.314Z,102108.31
2023-04-27T03:15:10.346Z,102097.34
2023-04-27T03:20:05.103Z,102099.38
2023-04-27T03:24:54.987Z,102099.97
2023-04-27T03:29:44.931Z,102113.06
2023-04-27T03:34:34.993Z,102114.59
2023-04-27T03:39:27.887Z,102105.88
2023-04-27T03:44:17.919Z,102108.97
2023-04-27T03:49:09.956Z,102106.06
2023-04-27T03:54:00.248Z,102104.59
2023-04-27T03:58:53.364Z,102106.97
2023-04-27T04:03:45.727Z,102119.91
2023-04-27T04:08:35.924Z,102102.00
2023-04-27T04:13:27.127Z,102122.19
2023-04-27T04:18:19.964Z,102126.78
2023-04-27T04:23:10.683Z,102109.03
2023-04-27T04:28:01.174Z,102118.41
2023-04-27T04:32:53.954Z,102141.19
2023-04-27T04:37:47.037Z,102127.47
2023-04-27T04:42:38.049Z,102114.28
2023-04-27T04:47:28.858Z,102149.16
2023-04-27T04:52:18.848Z,102128.94
2023-04-27T04:57:11.377Z,102145.63
2023-04-27T05:02:01.831Z,102139.56
2023-04-27T05:06:53.118Z,102152.13
2023-04-27T05:11:56.720Z,102139.03
2023-04-27T05:16:49.589Z,102143.63
2023-04-27T05:21:40.575Z,102156.94
2023-04-27T05:26:30.753Z,102153.66
2023-04-27T05:31:21.456Z,102166.53
2023-04-27T05:36:14.848Z,102154.16
2023-04-27T05:41:05.190Z,102156.81
2023-04-27T05:45:56.199Z,102175.69
2023-04-27T05:50:46.580Z,102172.50
2023-04-27T05:55:39.654Z,102180.28
2023-04-27T06:00:29.673Z,102165.53
2023-04-27T06:05:20.069Z,102186.13
2023-04-27T06:10:11.931Z,102168.03
2023-04-27T06:15:08.686Z,102187.50
2023-04-27T06:20:01.020Z,102173.16
2023-04-27T06:24:50.941Z,102168.69
2023-04-27T06:29:40.852Z,102183.41
2023-04-27T06:34:33.342Z,102180.38
2023-04-27T06:39:23.512Z,102175.69
2023-04-27T06:44:13.471Z,102171.94
2023-04-27T06:49:03.344Z,102156.84
2023-04-27T06:53:57.451Z,102161.91
2023-04-27T06:58:47.406Z,102148.19
2023-04-27T07:03:43.671Z,102156.53
2023-04-27T07:08:33.637Z,102173.88
2023-04-27T07:13:26.623Z,102169.13
2023-04-27T07:18:16.611Z,102163.66
2023-04-27T07:23:09.028Z,102156.81
2023-04-27T07:27:59.894Z,102102.50
2023-04-27T07:32:54.855Z,102171.63
2023-04-27T07:37:45.728Z,102173.88
2023-04-27T07:42:35.647Z,102169.19
2023-04-27T07:47:25.697Z,102167.16
2023-04-27T07:52:18.367Z,102158.00
2023-04-27T07:57:11.806Z,102164.13
2023-04-27T08:02:17.653Z,102166.16
2023-04-27T08:07:09.750Z,102178.56
2023-04-27T08:12:06.822Z,102157.47
2023-04-27T08:16:56.927Z,102155.31
2023-04-27T08:21:46.986Z,102149.00
2023-04-27T08:26:36.970Z,102139.81
2023-04-27T08:31:30.491Z,102150.94
2023-04-27T08:36:20.558Z,102165.25
2023-04-27T08:41:21.300Z,102157.66
2023-04-27T08:46:12.113Z,102138.78
2023-04-27T08:51:06.086Z,102155.44
2023-04-27T08:55:56.988Z,102153.59
2023-04-27T09:00:51.969Z,102149.19
2023-04-27T09:06:00.654Z,102141.38
2023-04-27T09:10:56.981Z,102149.16
2023-04-27T09:15:48.990Z,102123.03
2023-04-27T09:20:46.407Z,102106.63
2023-04-27T09:25:38.228Z,102144.88
2023-04-27T09:30:31.991Z,102137.94
2023-04-27T09:35:25.658Z,102126.63
2023-04-27T09:40:16.693Z,102124.06
2023-04-27T09:45:17.979Z,102125.78
2023-04-27T09:50:12.622Z,102132.78
2023-04-27T09:55:03.968Z,102131.94
2023-04-27T10:00:16.486Z,102123.19
2023-04-27T10:05:28.910Z,102131.91
2023-04-27T10:10:21.217Z,102114.50
2023-04-27T10:15:18.692Z,102138.00
2023-04-27T10:20:11.746Z,102124.06
2023-04-27T10:25:04.430Z,102121.47
2023-04-27T10:29:55.223Z,102103.19
2023-04-27T10:34:47.784Z,102106.63
2023-04-27T10:39:48.708Z,102116.19
2023-04-27T10:44:42.530Z,102093.56
2023-04-27T10:49:33.116Z,102088.28
2023-04-27T10:54:29.370Z,102086.44
2023-04-27T10:59:19.349Z,102089.91
2023-04-27T11:04:12.420Z,102073.50
2023-04-27T11:09:06.676Z,102088.31
2023-04-27T11:13:56.678Z,102067.41
2023-04-27T11:18:47.825Z,102073.50
2023-04-27T11:23:43.800Z,102061.31
2023-04-27T11:28:33.738Z,102056.06
2023-04-27T11:33:24.222Z,102076.03
2023-04-27T11:38:20.744Z,102057.75
2023-04-27T11:43:15.736Z,102055.97
2023-04-27T11:48:05.767Z,102054.31
2023-04-27T11:52:56.197Z,102056.06
2023-04-27T11:57:46.315Z,102060.31
2023-04-27T12:02:39.046Z,102032.44
2023-04-27T12:07:29.377Z,102020.25
2023-04-27T12:12:22.755Z,102005.63
2023-04-27T12:17:12.791Z,102038.63
2023-04-27T12:22:05.595Z,102024.75
2023-04-27T12:26:55.869Z,102034.25
2023-04-27T12:31:45.986Z,102030.72
2023-04-27T12:36:36.483Z,101978.59
2023-04-27T12:41:29.475Z,102025.41
2023-04-27T12:46:20.121Z,102027.88
2023-04-27T12:51:10.086Z,102021.81
2023-04-27T12:56:02.072Z,102014.09
2023-04-27T13:00:57.863Z,102007.25
2023-04-27T13:05:48.004Z,101998.50
2023-04-27T13:10:37.864Z,101995.06
2023-04-27T13:15:29.939Z,101986.44
2023-04-27T13:20:23.649Z,101977.66
2023-04-27T13:25:13.447Z,101977.50
2023-04-27T13:30:03.241Z,101973.91
2023-04-27T13:34:53.057Z,101976.44
2023-04-27T13:39:45.929Z,101982.56
2023-04-27T13:44:35.773Z,101947.78
2023-04-27T13:49:26.111Z,101961.78
2023-04-27T13:54:16.091Z,101946.03
2023-04-27T13:59:10.628Z,101912.94
2023-04-27T14:04:00.638Z,101925.13
2023-04-27T14:08:51.432Z,101924.31
2023-04-27T14:13:42.249Z,101913.88
2023-04-27T14:18:34.925Z,101893.00
2023-04-27T14:23:25.061Z,101903.38
2023-04-27T14:28:16.786Z,101888.63
2023-04-27T14:33:06.973Z,101899.06
2023-04-27T14:38:02.476Z,101903.38
2023-04-27T14:42:52.899Z,101906.25
2023-04-27T14:47:42.730Z,101901.78
2023-04-27T14:52:32.780Z,101893.09
2023-04-27T14:57:25.200Z,101876.59
2023-04-27T15:02:15.081Z,101863.59
2023-04-27T15:07:05.528Z,101883.69
2023-04-27T15:11:55.339Z,101875.94
2023-04-27T15:16:47.892Z,101861.22
2023-04-27T15:21:39.086Z,101875.16
2023-04-27T15:26:29.701Z,101860.31
2023-04-27T15:31:19.682Z,101845.56
2023-04-27T15:36:13.081Z,101849.94
2023-04-27T15:41:03.477Z,101843.00
2023-04-27T15:45:54.769Z,101831.72
2023-04-27T15:50:44.881Z,101816.88
2023-04-27T15:55:37.491Z,101805.53
2023-04-27T16:00:27.778Z,101814.97
2023-04-27T16:05:18.127Z,101801.03
2023-04-27T16:10:09.245Z,101789.72
2023-04-27T16:15:01.784Z,101805.47
2023-04-27T16:19:51.798Z,101792.53
2023-04-27T16:24:41.634Z,101784.84
2023-04-27T16:29:31.697Z,101770.13
2023-04-27T16:34:24.509Z,101762.31
2023-04-27T16:39:15.209Z,101752.78
2023-04-27T16:44:05.775Z,101767.63
2023-04-27T16:48:56.119Z,101747.66
2023-04-27T16:53:50.794Z,101752.88
2023-04-27T16:58:43.281Z,101732.91
2023-04-27T17:03:34.949Z,101758.09
2023-04-27T17:08:26.242Z,101754.63
2023-04-27T17:13:19.327Z,101752.03
2023-04-27T17:18:09.944Z,101727.69
2023-04-27T17:22:59.724Z,101735.53
2023-04-27T17:27:52.595Z,101739.84
2023-04-27T17:32:45.254Z,101713.75
2023-04-27T17:37:35.085Z,101718.06
2023-04-27T17:42:26.126Z,101731.94
2023-04-27T17:47:19.005Z,101719.72
2023-04-27T17:52:12.708Z,101707.56
2023-04-27T17:57:02.651Z,101724.06
2023-04-27T18:01:55.241Z,101718.81
2023-04-27T18:06:45.523Z,101722.25
2023-04-27T18:11:38.698Z,101726.56
2023-04-27T18:16:29.093Z,101716.16
2023-04-27T18:21:19.373Z,101717.88
2023-04-27T18:26:11.070Z,101711.81
2023-04-27T18:31:04.466Z,101710.03
2023-04-27T18:35:54.472Z,101706.59
2023-04-27T18:40:51.138Z,101710.00
2023-04-27T18:45:41.106Z,101697.84
2023-04-27T18:50:33.762Z,101707.38
2023-04-27T18:55:26.218Z,101695.16
2023-04-27T19:00:17.611Z,101697.78
2023-04-27T19:05:13.155Z,101685.56
2023-04-27T19:10:06.948Z,101684.63
2023-04-27T19:15:04.863Z,101686.41
2023-04-27T19:19:55.296Z,101682.91
2023-04-27T19:24:45.278Z,101681.06
2023-04-27T19:29:54.923Z,101673.94
2023-04-27T19:34:44.884Z,101678.34
2023-04-27T19:39:35.977Z,101680.00
2023-04-27T19:44:26.261Z,101671.28
2023-04-27T19:49:19.267Z,101691.25
2023-04-27T19:54:12.210Z,101682.56
2023-04-27T19:59:04.371Z,101683.34
2023-04-27T20:03:54.630Z,101679.91
2023-04-27T20:08:47.069Z,101672.88
2023-04-27T20:13:38.849Z,101684.16
2023-04-27T20:18:31.873Z,101683.34
2023-04-27T20:23:21.672Z,101670.25
2023-04-27T20:28:14.625Z,101658.13
2023-04-27T20:33:04.794Z,101638.19
2023-04-27T20:37:55.015Z,101611.28
2023-04-27T20:42:46.023Z,101608.72
2023-04-27T20:47:38.576Z,101587.94
2023-04-27T20:52:31.825Z,101594.94
2023-04-27T20:57:23.086Z,101583.66
2023-04-27T21:02:13.021Z,101560.22
2023-04-27T21:07:06.177Z,101558.50
2023-04-27T21:11:56.085Z,101562.81
2023-04-27T21:16:45.949Z,101549.81
2023-04-27T21:21:35.775Z,101555.91
2023-04-27T21:26:28.455Z,101531.56
2023-04-27T21:31:20.044Z,101547.22
2023-04-27T21:36:10.893Z,101527.25
2023-04-27T21:41:02.007Z,101524.66
2023-04-27T21:45:54.916Z,101509.09
2023-04-27T21:50:44.904Z,101523.78
2023-04-27T21:55:34.743Z,101520.34
2023-04-27T22:00:25.810Z,101524.63
2023-04-27T22:05:21.137Z,101509.09
2023-04-27T22:10:12.218Z,101498.69
2023-04-27T22:15:03.383Z,101499.50
2023-04-27T22:19:53.169Z,101477.91
2023-04-27T22:24:45.657Z,101483.13
2023-04-27T22:29:35.642Z,101467.47
2023-04-27T22:34:26.329Z,101468.34
2023-04-27T22:39:16.390Z,101454.47
2023-04-27T22:44:08.874Z,101450.97
2023-04-27T22:49:01.581Z,101448.38
2023-04-27T22:53:51.855Z,101435.34
2023-04-27T22:58:45.241Z,101436.19
2023-04-27T23:03:38.294Z,101456.97
2023-04-27T23:08:29.023Z,101447.44
2023-04-27T23:13:18.826Z,101441.34
2023-04-27T23:18:10.012Z,101431.91
2023-04-27T23:23:02.750Z,101431.91
2023-04-27T23:27:53.000Z,101419.69
2023-04-27T23:32:43.459Z,101432.63
2023-04-27T23:37:34.738Z,101435.97
2023-04-27T23:42:27.825Z,101428.22
2023-04-27T23:47:17.661Z,101415.22
2023-04-27T23:52:08.112Z,101408.34
2023-04-27T23:56:58.295Z,101393.63
